Terminal Aerodrome Forecast
Issued by NWS Portland, ME

Home | Current Version | Previous Version | Text Only | Print | Product List | Glossary On
Versions: 1 2 3 4 5 6 7 8 9 10 11 12 13 14 15 16 17
963
FTUS41 KGYX 232010 AAA
TAFCON
TAF AMD
KCON 232010Z 2320/2418 27010G19KT P6SM SCT050
      TEMPO 2320/2323 1SM +TSRA BKN050CB
     FM240000 VRB03KT P6SM FEW200
     FM240900 00000KT 1/2SM FG VV002
     FM241200 VRB05KT P6SM SKC=

USA.gov is the U.S. government's official web portal to all federal, state and local government web resources and services.